map of TSF home
TSF - Airport
Location
City:  Treviso, Veneto, Italy
Name:Treviso-Sant'Angelo
Old (Alt.):Venice Treviso
ICAO:LIPH
IATA:TSF

Details
Type:Airport (Aerodrome, Airfield)
Use:Public/Civil, Military
Latitude:4538'54"N (45.648400)
Longitude:1211'40"E (12.194422)
Datum:WGS 1984
Elevation:59 ft (18 m)
Variation:3.40E (WMM2015v2 magnetic declination)
0.15 annual change
Runways:1
Longest:7941 × 144 ft (2420 × 44 m), paved

Time
Time Zone:UTC+1 (DST+2)
Local Time:

Weather
METAR:LIPH 041350Z 03005KT 340V080 CAVOK 12/M01 Q1024
TAF:LIPH 041100Z 0412/0512 VRB05KT CAVOK
TEMPO 0420/0506 4000 BR

Related Locations
Nearby:
Farthest:CHT: 11995 mi / 19305 km
Waitangi [Tuuta], CIT, NZ

Find:

   beyond  
but within

Other Information
Maps:
NOTAMs:
Links:
Sources:

  
  • flag of Italy
  • flag of Veneto
  

Sectional Chart

Flight Planning
at skyvector.com

Satellite Image

Google Maps Satellite view

 

Copyright © 2004-2019 Karl L. Swartz. All rights reserved.
The Great Circle Mapper name and logo are trademarks of the Great Circle Mapper.
All other trademarks mentioned herein belong to their respective owners.
Please see credits for attibutions and further copyright information.

  Follow gcmap on Facebook Follow gcmap on Twitter GCmap on LinkedIn

hCard Microformat

Geo Microformat